Details From CYZF - Yellowknife
To CYHY - Hay River
Flight Number -
Tags Generated
Created
Modified
Stats Distance 105 nm / 195 km
Max Altitude 0 ft / 0 m
Waypoints 2
Social Downloads 4
Likes 0
Share VATSIM

Download

Looking for another format? Having issues loading an existing format? Contact us
Advertisement - Login to hide

Notes

Generated

Route

CYZF CYHY

ID Type Via Altitude Latitude Longitude Leg Dist Tot Dist Heading (true) Name
O CYZF APT - 0 ft / 0 m 62.47133˚ -114.45350˚ - 0 nm - -
O CYHY APT - 0 ft / 0 m 60.83944˚ -115.78944˚ 105 nm 105 nm 202° / 201° -

Altitude Profile

Advertisement - Login to hide

CYZF

Details ICAO CYZF (YZF)
Name YELLOWKNIFE
Region Canada
Timezone America/Yellowknife (UTC-7.0)
Stats Elevation 675 ft / 206 m (AMSL)
Location 62.465666° -114.441417°
Runways 2
Magnetic Variation 16.582° E

METAR

CYZF 180500Z 32015G21KT 5SM -SN DRSN BKN040 OVC110 M13/M15 A2928 RMK SC5AC3 SLP936

Decode

TAF

TAF CYZF 172338Z 1800/1824 30010G20KT 4SM -SN BKN015 OVC040 TEMPO 1800/1808 P6SM NSW FEW015 SCT040 BKN140 FM180800 35010G20KT P6SM -SN BKN020 OVC040 FM181600 36012KT P6SM IC SCT020 BKN060 FM182000 35012KT P6SM IC FEW020 SCT060 RMK NXT FCST BY 180600Z

Decode

Departure Runways

ID Width Length Bearing (true) Bearing (mag) Surface Threshold Offset Overrun Length
09 150 ft / 46 m 4,902 ft / 1,494 m 116.52° 99.94° Asphalt 0 ft / 0 m 0 ft / 0 m
15 150 ft / 46 m 7,441 ft / 2,268 m 175.66° 159.08° Asphalt 0 ft / 0 m 0 ft / 0 m
27 150 ft / 46 m 4,902 ft / 1,494 m 296.54° 279.96° Asphalt 0 ft / 0 m 0 ft / 0 m
33 150 ft / 46 m 7,441 ft / 2,268 m 355.67° 339.09° Asphalt 0 ft / 0 m 0 ft / 0 m

CYHY

Details ICAO CYHY (YHY)
Name HAY RIVER
Region Canada
Timezone America/Yellowknife (UTC-7.0)
Stats Elevation 543 ft / 166 m (AMSL)
Location 60.840621° -115.784243°
Runways 2
Magnetic Variation 16.956° E

METAR

CYHY 180500Z 29015G20KT 6SM -SN BKN019 OVC034 M11/M13 A2941 RMK SC5SC3 SLP977

Decode

TAF

TAF CYHY 172338Z 1800/1812 27008KT P6SM FEW008 SCT025 BKN080 TEMPO 1800/1804 5SM -SN SCT008 OVC015 FM180400 30015G25KT P6SM -SN BKN020 TEMPO 1804/1807 P6SM NSW FM180700 30015G25KT P6SM -SN SCT008 OVC025 TEMPO 1807/1811 2SM -SHSN BKN008 OVC015 PROB30 1807/1811 1SM -SHSN FM181100 30012G22KT P6SM -SN BKN020 RMK NXT FCST BY 180600Z

Decode

Destination Runways

ID Width Length Bearing (true) Bearing (mag) Surface Threshold Offset Overrun Length
04 150 ft / 46 m 4,043 ft / 1,232 m 66.34° 49.38° Dirt 0 ft / 0 m 0 ft / 0 m
13 150 ft / 46 m 6,056 ft / 1,846 m 156.90° 139.94° Asphalt 0 ft / 0 m 0 ft / 0 m
22 150 ft / 46 m 4,043 ft / 1,232 m 246.36° 229.40° Dirt 0 ft / 0 m 0 ft / 0 m
31 150 ft / 46 m 6,056 ft / 1,846 m 336.92° 319.96° Asphalt 0 ft / 0 m 0 ft / 0 m

Popular Alternatives